Time;durP1;ratioP1;P1;durP2;ratioP2;P2;SDS_P1;SDS_P2;PMS_P1;PMS_P2;Temp;Humidity;BMP_temperature;BMP_pressure;BME280_temperature;BME280_humidity;BME280_pressure;Samples;Min_cycle;Max_cycle;Signal;HPM_P1;HPM_P2
2021/09/21 00:00:29;;;;;;;12.83;10.17;;;8.90;88.60;;;;;;5074386;28;20238;-87
2021/09/21 00:02:54;;;;;;;14.50;10.50;;;8.90;88.60;;;;;;5073153;28;20191;-88
2021/09/21 00:05:20;;;;;;;14.67;11.33;;;8.90;88.30;;;;;;5075513;28;20549;-87
2021/09/21 00:07:46;;;;;;;14.70;9.77;;;9.00;88.20;;;;;;5075374;28;20241;-87
2021/09/21 00:10:12;;;;;;;11.50;9.93;;;9.00;88.50;;;;;;5074061;28;20221;-87
2021/09/21 00:12:39;;;;;;;12.27;10.73;;;9.00;88.40;;;;;;5074085;28;20305;-87
2021/09/21 00:15:08;;;;;;;11.60;9.53;;;9.10;88.20;;;;;;5074005;28;20677;-87
2021/09/21 00:17:33;;;;;;;13.50;10.47;;;9.20;88.40;;;;;;5073939;28;20214;-87
2021/09/21 00:20:00;;;;;;;13.43;9.40;;;9.20;88.40;;;;;;5075384;28;20250;-87
2021/09/21 00:22:26;;;;;;;14.97;10.53;;;9.20;88.30;;;;;;5075513;28;20668;-88
2021/09/21 00:24:52;;;;;;;11.90;9.87;;;9.20;88.30;;;;;;5075343;28;20172;-87
2021/09/21 00:27:17;;;;;;;11.87;9.17;;;9.20;88.40;;;;;;5073754;28;20530;-86
2021/09/21 00:29:44;;;;;;;11.13;9.27;;;9.20;88.30;;;;;;5075031;28;20194;-86
2021/09/21 00:32:15;;;;;;;12.87;9.83;;;9.20;88.30;;;;;;5075183;28;20182;-87
2021/09/21 00:34:43;;;;;;;14.27;10.67;;;9.30;88.20;;;;;;5075712;28;20175;-87
2021/09/21 00:37:13;;;;;;;15.07;9.77;;;9.30;88.20;;;;;;5074185;28;20186;-87
2021/09/21 00:39:40;;;;;;;9.90;8.50;;;9.30;88.10;;;;;;5074395;28;20180;-87
2021/09/21 00:42:07;;;;;;;11.93;9.93;;;9.30;88.10;;;;;;5074666;28;20187;-87
2021/09/21 00:44:35;;;;;;;19.10;10.43;;;9.30;88.00;;;;;;5073578;28;20172;-87
2021/09/21 00:47:01;;;;;;;17.77;11.87;;;9.40;88.30;;;;;;5073326;28;20205;-87
2021/09/21 00:49:28;;;;;;;17.20;12.00;;;9.30;88.40;;;;;;5074567;28;20663;-87
2021/09/21 00:51:55;;;;;;;16.70;11.70;;;9.30;89.10;;;;;;5074539;28;20172;-87
2021/09/21 00:54:21;;;;;;;13.93;12.07;;;9.40;89.30;;;;;;5073253;28;20240;-87
2021/09/21 00:56:47;;;;;;;15.23;11.50;;;9.40;89.30;;;;;;5074448;28;20172;-87
2021/09/21 00:59:12;;;;;;;15.20;11.53;;;9.50;89.20;;;;;;5073407;28;20250;-87
2021/09/21 01:01:38;;;;;;;13.37;11.47;;;9.50;89.10;;;;;;5073051;28;20233;-87
2021/09/21 01:04:05;;;;;;;20.47;11.93;;;9.50;88.90;;;;;;5073034;28;20659;-87
2021/09/21 01:06:31;;;;;;;14.73;11.53;;;9.50;88.90;;;;;;5072859;28;20183;-87
2021/09/21 01:08:58;;;;;;;13.03;11.63;;;9.50;88.80;;;;;;5074324;28;20663;-87
2021/09/21 01:11:23;;;;;;;16.73;11.70;;;9.70;88.60;;;;;;5074133;28;20164;-87
2021/09/21 01:13:49;;;;;;;18.90;12.13;;;9.70;88.50;;;;;;5072486;28;20667;-87
2021/09/21 01:16:15;;;;;;;13.60;11.60;;;9.70;88.80;;;;;;5074090;28;20167;-87
2021/09/21 01:18:42;;;;;;;16.70;12.63;;;9.60;89.20;;;;;;5072559;28;20264;-87
2021/09/21 01:21:09;;;;;;;20.43;11.93;;;9.70;89.40;;;;;;5072786;28;20182;-87
2021/09/21 01:23:47;;;;;;;18.67;10.93;;;9.60;89.40;;;;;;5073203;28;20706;-87
2021/09/21 01:26:12;;;;;;;14.93;11.27;;;9.70;89.40;;;;;;5072586;28;20643;-87
2021/09/21 01:28:38;;;;;;;15.43;11.10;;;9.70;89.60;;;;;;5072438;28;20194;-87
2021/09/21 01:31:04;;;;;;;12.10;10.83;;;9.70;89.60;;;;;;5073967;28;20261;-87
2021/09/21 01:33:30;;;;;;;12.47;10.40;;;9.80;89.60;;;;;;5073684;28;20250;-87
2021/09/21 01:35:55;;;;;;;11.63;10.03;;;9.80;89.40;;;;;;5072475;28;20171;-87
2021/09/21 01:38:21;;;;;;;16.37;11.00;;;9.80;89.30;;;;;;5072345;28;20195;-87
2021/09/21 01:40:46;;;;;;;12.77;10.47;;;9.80;89.10;;;;;;5072267;28;20298;-87
2021/09/21 01:43:12;;;;;;;15.70;11.80;;;9.80;89.20;;;;;;5072334;28;20172;-87
2021/09/21 01:45:38;;;;;;;17.17;10.93;;;9.90;89.10;;;;;;5072348;28;20175;-87
2021/09/21 01:48:03;;;;;;;13.50;11.27;;;9.90;89.30;;;;;;5072180;28;20615;-87
2021/09/21 01:50:45;;;;;;;14.97;12.13;;;9.90;89.60;;;;;;5072191;28;20179;-87
2021/09/21 01:53:33;;;;;;;24.27;12.47;;;9.90;89.70;;;;;;5072261;28;20190;-87
2021/09/21 02:01:16;;;;;;;14.57;12.03;;;9.90;90.20;;;;;;5073717;28;20162;-87
2021/09/21 02:03:42;;;;;;;18.33;12.07;;;9.90;90.10;;;;;;5073273;28;20250;-87
2021/09/21 02:06:09;;;;;;;13.20;11.43;;;10.00;90.10;;;;;;5072113;28;20707;-87
2021/09/21 02:08:34;;;;;;;14.73;12.83;;;10.00;90.20;;;;;;5073514;28;20190;-87
2021/09/21 02:11:00;;;;;;;14.50;10.83;;;10.10;90.10;;;;;;5073445;28;20183;-87
2021/09/21 02:13:26;;;;;;;13.70;11.13;;;10.10;89.90;;;;;;5073251;28;20179;-87
2021/09/21 02:15:52;;;;;;;17.60;11.73;;;10.10;89.80;;;;;;5072025;28;20175;-87
2021/09/21 02:18:18;;;;;;;17.50;12.10;;;10.10;89.60;;;;;;5073061;28;20309;-87
2021/09/21 02:20:43;;;;;;;12.17;10.47;;;10.20;89.50;;;;;;5071856;28;20663;-87
2021/09/21 02:23:09;;;;;;;18.30;11.27;;;10.30;89.50;;;;;;5071867;28;20198;-87
2021/09/21 02:25:35;;;;;;;13.27;11.70;;;10.20;89.30;;;;;;5072465;28;20636;-87
2021/09/21 02:28:00;;;;;;;16.50;12.03;;;10.30;89.30;;;;;;5073020;28;20282;-87
2021/09/21 02:30:26;;;;;;;12.97;11.33;;;10.30;89.20;;;;;;5071816;28;20266;-87
2021/09/21 02:32:52;;;;;;;14.70;11.03;;;10.30;89.10;;;;;;5071763;28;20557;-87
2021/09/21 02:35:18;;;;;;;18.83;11.27;;;10.30;89.00;;;;;;5073290;28;20179;-87
2021/09/21 02:37:44;;;;;;;21.50;11.43;;;10.30;88.90;;;;;;5071711;28;20224;-87
2021/09/21 02:40:11;;;;;;;18.23;10.97;;;10.30;88.80;;;;;;5072906;28;20226;-87
2021/09/21 02:42:37;;;;;;;12.17;10.63;;;10.30;88.70;;;;;;5071644;28;20209;-87
2021/09/21 02:45:04;;;;;;;14.87;10.87;;;10.30;88.60;;;;;;5073202;28;20171;-87
2021/09/21 02:47:29;;;;;;;12.83;10.93;;;10.30;88.60;;;;;;5071518;28;20195;-87
2021/09/21 02:49:55;;;;;;;16.97;11.13;;;10.30;88.60;;;;;;5072825;28;20179;-87
2021/09/21 02:52:21;;;;;;;11.60;9.77;;;10.30;88.60;;;;;;5071570;28;20179;-87
2021/09/21 02:54:46;;;;;;;11.57;9.57;;;10.40;88.60;;;;;;5071544;28;20286;-87
2021/09/21 02:57:12;;;;;;;13.63;10.13;;;10.40;88.60;;;;;;5071400;28;20183;-87
2021/09/21 02:59:38;;;;;;;12.70;10.17;;;10.40;88.50;;;;;;5071523;28;20203;-87
2021/09/21 03:02:03;;;;;;;12.80;10.40;;;10.40;88.50;;;;;;5071439;28;20221;-87
2021/09/21 03:04:33;;;;;;;12.20;10.90;;;10.50;88.50;;;;;;5071399;28;20263;-87
2021/09/21 03:07:05;;;;;;;13.27;10.77;;;10.50;88.90;;;;;;5071467;28;20207;-87
2021/09/21 03:12:17;;;;;;;13.73;11.10;;;10.40;89.60;;;;;;5072753;28;20164;-87
2021/09/21 03:17:26;;;;;;;11.40;10.20;;;10.30;89.60;;;;;;5073090;28;20572;-87
2021/09/21 03:19:57;;;;;;;12.57;11.10;;;10.40;89.50;;;;;;5071287;28;20191;-87
2021/09/21 03:22:23;;;;;;;11.03;9.77;;;10.40;89.50;;;;;;5071401;28;20210;-87
2021/09/21 03:24:50;;;;;;;12.53;10.73;;;10.40;89.50;;;;;;5071254;28;20525;-87
2021/09/21 03:27:16;;;;;;;14.23;10.23;;;10.40;89.50;;;;;;5072462;28;20656;-87
2021/09/21 03:29:42;;;;;;;14.13;11.37;;;10.40;89.40;;;;;;5071326;28;20225;-87
2021/09/21 03:32:08;;;;;;;17.67;12.77;;;10.50;89.50;;;;;;5072789;28;20254;-87
2021/09/21 03:34:37;;;;;;;14.57;12.10;;;10.40;89.80;;;;;;5072572;28;20175;-87
2021/09/21 03:37:07;;;;;;;13.77;11.40;;;10.50;90.10;;;;;;5073804;28;20171;-87
2021/09/21 03:39:34;;;;;;;12.27;10.97;;;10.50;90.10;;;;;;5075925;28;20685;-87
2021/09/21 03:42:00;;;;;;;15.93;11.43;;;10.50;90.00;;;;;;5074782;28;20329;-87
2021/09/21 03:44:27;;;;;;;11.97;10.60;;;10.50;89.90;;;;;;5074758;28;20718;-87
2021/09/21 03:46:53;;;;;;;11.23;10.13;;;10.60;89.90;;;;;;5074575;28;20673;-87
2021/09/21 03:49:20;;;;;;;12.53;11.17;;;10.60;90.00;;;;;;5074590;28;20682;-87
2021/09/21 03:51:46;;;;;;;13.03;10.13;;;10.60;89.90;;;;;;5074498;28;20187;-87
2021/09/21 03:54:12;;;;;;;12.10;10.77;;;10.60;89.80;;;;;;5074520;28;20179;-87
2021/09/21 03:56:39;;;;;;;14.83;11.33;;;10.60;89.70;;;;;;5074673;28;20179;-87
2021/09/21 03:59:06;;;;;;;13.77;12.27;;;10.60;89.80;;;;;;5074265;28;20665;-87
2021/09/21 04:01:32;;;;;;;11.50;10.30;;;10.70;89.70;;;;;;5074262;28;20178;-87
2021/09/21 04:03:59;;;;;;;12.70;10.47;;;10.70;89.70;;;;;;5074261;28;20262;-87
2021/09/21 04:06:25;;;;;;;15.10;11.63;;;10.70;89.60;;;;;;5075511;28;20174;-87
2021/09/21 04:08:51;;;;;;;13.53;11.90;;;10.70;89.60;;;;;;5075357;28;20686;-87
2021/09/21 04:11:17;;;;;;;14.30;10.77;;;10.70;89.50;;;;;;5075295;28;20191;-87
2021/09/21 04:13:43;;;;;;;11.53;9.83;;;10.80;89.30;;;;;;5075331;28;20195;-87
2021/09/21 04:16:09;;;;;;;12.63;10.87;;;10.80;89.40;;;;;;5075338;28;20460;-87
2021/09/21 04:18:35;;;;;;;12.43;10.60;;;10.70;89.30;;;;;;5073955;28;20195;-87
2021/09/21 04:21:01;;;;;;;14.07;10.20;;;10.80;89.20;;;;;;5075075;28;20280;-87
2021/09/21 04:23:26;;;;;;;12.17;10.87;;;10.80;89.30;;;;;;5075168;28;20174;-87
2021/09/21 04:25:52;;;;;;;12.33;11.03;;;10.80;89.40;;;;;;5073940;28;20185;-87
2021/09/21 04:28:20;;;;;;;14.13;11.77;;;10.80;89.30;;;;;;5075171;28;20194;-87
2021/09/21 04:30:48;;;;;;;13.60;11.10;;;10.80;89.40;;;;;;5073835;28;20207;-87
2021/09/21 04:33:14;;;;;;;15.23;11.13;;;10.80;89.40;;;;;;5073706;28;20258;-87
2021/09/21 04:35:40;;;;;;;16.33;11.73;;;10.70;89.60;;;;;;5073677;28;20324;-87
2021/09/21 04:38:06;;;;;;;17.47;11.37;;;10.70;89.80;;;;;;5074889;28;20567;-87
2021/09/21 04:40:32;;;;;;;20.97;11.63;;;10.70;90.00;;;;;;5074758;28;20206;-87
2021/09/21 04:42:58;;;;;;;14.87;12.23;;;10.70;90.10;;;;;;5074763;28;20168;-87
2021/09/21 04:45:24;;;;;;;15.90;11.80;;;10.70;90.40;;;;;;5073499;28;20179;-87
2021/09/21 04:47:49;;;;;;;15.70;11.83;;;10.60;90.50;;;;;;5072721;28;20640;-87
2021/09/21 04:50:15;;;;;;;13.63;12.23;;;10.60;90.50;;;;;;5074797;28;20281;-87
2021/09/21 04:52:41;;;;;;;12.63;11.20;;;10.70;90.50;;;;;;5073369;28;20186;-87
2021/09/21 04:55:08;;;;;;;13.60;10.00;;;10.70;90.60;;;;;;5073205;28;20277;-87
2021/09/21 04:57:34;;;;;;;13.17;10.47;;;10.70;90.60;;;;;;5073014;28;20207;-87
2021/09/21 05:00:00;;;;;;;11.80;10.37;;;10.80;90.60;;;;;;5074469;28;20198;-87
2021/09/21 05:02:25;;;;;;;12.93;9.40;;;10.80;90.50;;;;;;5073079;28;20171;-87
2021/09/21 05:04:51;;;;;;;11.60;9.77;;;10.80;90.40;;;;;;5073136;28;20167;-87
2021/09/21 05:07:18;;;;;;;11.10;9.63;;;10.80;90.40;;;;;;5056541;28;20618;-87
2021/09/21 05:09:43;;;;;;;11.57;9.60;;;10.90;90.30;;;;;;5072963;28;20183;-87
2021/09/21 05:12:09;;;;;;;15.00;10.13;;;10.90;90.10;;;;;;5074267;28;20240;-87
2021/09/21 05:14:35;;;;;;;13.63;11.07;;;10.80;89.80;;;;;;5072998;28;20180;-87
2021/09/21 05:17:01;;;;;;;16.57;11.50;;;10.80;89.40;;;;;;5074042;28;20229;-87
2021/09/21 05:19:26;;;;;;;14.67;10.70;;;10.80;88.70;;;;;;5072767;28;20260;-87
2021/09/21 05:21:52;;;;;;;12.23;10.23;;;10.80;88.10;;;;;;5072722;28;20171;-87
2021/09/21 05:24:17;;;;;;;12.00;10.37;;;10.90;87.50;;;;;;5072662;28;20545;-87
2021/09/21 05:26:43;;;;;;;13.83;11.23;;;10.90;87.40;;;;;;5072583;28;20202;-87
2021/09/21 05:29:09;;;;;;;13.63;10.63;;;10.90;86.90;;;;;;5072665;28;20265;-87
2021/09/21 05:31:34;;;;;;;13.47;10.17;;;11.00;86.60;;;;;;5072725;28;20639;-87
2021/09/21 05:34:03;;;;;;;17.10;11.03;;;11.00;86.90;;;;;;5073802;28;20198;-87
2021/09/21 05:36:29;;;;;;;13.90;10.43;;;11.00;87.10;;;;;;5072426;28;20202;-87
2021/09/21 05:38:55;;;;;;;12.67;10.53;;;11.00;87.20;;;;;;5073547;28;20183;-87
2021/09/21 05:41:20;;;;;;;22.77;10.27;;;11.00;86.30;;;;;;5073674;28;20179;-87
2021/09/21 05:43:46;;;;;;;15.53;10.03;;;11.00;86.30;;;;;;5072363;28;20190;-87
2021/09/21 05:46:12;;;;;;;13.73;9.97;;;11.00;86.20;;;;;;5072367;28;20175;-87
2021/09/21 05:48:38;;;;;;;11.60;9.73;;;11.00;86.00;;;;;;5072154;28;20191;-87
2021/09/21 05:51:03;;;;;;;12.20;10.40;;;11.00;86.20;;;;;;5073538;28;20179;-87
2021/09/21 05:53:29;;;;;;;10.77;9.17;;;11.00;86.20;;;;;;5072271;28;20229;-87
2021/09/21 05:55:55;;;;;;;13.27;8.67;;;11.00;86.10;;;;;;5072209;28;20608;-87
2021/09/21 05:58:20;;;;;;;15.10;8.67;;;11.10;85.50;;;;;;5073184;28;20215;-87
2021/09/21 06:00:46;;;;;;;10.03;7.53;;;11.10;84.40;;;;;;5071095;28;20206;-87
2021/09/21 06:03:11;;;;;;;8.93;7.50;;;11.10;84.00;;;;;;5072115;28;20182;-86
2021/09/21 06:05:37;;;;;;;10.53;7.67;;;11.20;83.90;;;;;;5073337;28;20195;-87
2021/09/21 06:08:03;;;;;;;13.77;7.80;;;11.20;84.40;;;;;;5073541;28;20567;-87
2021/09/21 06:10:29;;;;;;;12.80;9.17;;;11.20;84.90;;;;;;5073493;28;20535;-86
2021/09/21 06:12:55;;;;;;;13.77;9.10;;;11.20;86.10;;;;;;5071938;28;20179;-87
2021/09/21 06:15:20;;;;;;;14.83;9.43;;;11.20;87.00;;;;;;5072047;28;20186;-87
2021/09/21 06:17:48;;;;;;;10.07;8.93;;;11.20;87.40;;;;;;5073214;28;20221;-87
2021/09/21 06:20:15;;;;;;;13.33;9.47;;;11.30;87.20;;;;;;5071832;28;20202;-87
2021/09/21 06:22:43;;;;;;;13.33;9.10;;;11.30;87.10;;;;;;5071756;28;20662;-87
2021/09/21 06:25:10;;;;;;;10.50;8.37;;;11.30;86.90;;;;;;5073153;28;20228;-87
2021/09/21 06:27:36;;;;;;;13.83;9.37;;;11.30;85.90;;;;;;5071827;28;20219;-87
2021/09/21 06:30:08;;;;;;;13.43;8.23;;;11.30;85.80;;;;;;5071841;28;20195;-87
2021/09/21 06:32:35;;;;;;;11.47;8.60;;;11.40;85.60;;;;;;5071694;28;20240;-87
2021/09/21 06:35:01;;;;;;;14.33;8.43;;;11.40;85.60;;;;;;5073100;28;20176;-87
2021/09/21 06:37:27;;;;;;;12.53;9.37;;;11.50;85.40;;;;;;5071573;28;20237;-87
2021/09/21 06:39:52;;;;;;;12.03;9.20;;;11.50;86.10;;;;;;5071615;28;20226;-87
2021/09/21 06:42:18;;;;;;;13.17;8.70;;;11.50;86.40;;;;;;5073069;28;20652;-87
2021/09/21 06:44:44;;;;;;;11.23;9.03;;;11.50;86.30;;;;;;5071819;28;20658;-87
2021/09/21 06:47:10;;;;;;;10.53;9.30;;;11.60;86.20;;;;;;5071609;28;20179;-87
2021/09/21 06:49:35;;;;;;;11.37;9.43;;;11.50;85.80;;;;;;5072805;28;20250;-87
2021/09/21 06:52:01;;;;;;;12.67;8.97;;;11.60;85.80;;;;;;5071518;28;20631;-87
2021/09/21 06:54:27;;;;;;;11.87;9.43;;;11.60;85.80;;;;;;5071584;28;20182;-87
2021/09/21 06:56:52;;;;;;;14.27;9.67;;;11.70;85.60;;;;;;5072731;28;20643;-87
2021/09/21 06:59:18;;;;;;;10.60;9.40;;;11.70;85.60;;;;;;5071304;28;20302;-87
2021/09/21 07:01:44;;;;;;;18.80;11.60;;;11.80;85.50;;;;;;5072761;28;20490;-87
2021/09/21 07:04:10;;;;;;;10.63;9.57;;;11.80;85.80;;;;;;5071530;28;20176;-87
2021/09/21 07:06:35;;;;;;;12.20;9.87;;;11.70;86.20;;;;;;5071523;28;20172;-87
2021/09/21 07:09:02;;;;;;;13.03;9.97;;;11.80;86.30;;;;;;5071391;28;20699;-87
2021/09/21 07:11:28;;;;;;;15.67;9.53;;;11.80;86.40;;;;;;5073106;28;20250;-87
2021/09/21 07:13:54;;;;;;;13.97;9.97;;;11.80;86.60;;;;;;5076466;28;20168;-87
2021/09/21 07:16:19;;;;;;;17.53;10.43;;;11.80;86.60;;;;;;5076692;28;20573;-87
2021/09/21 07:18:45;;;;;;;16.90;12.03;;;11.80;86.80;;;;;;5076277;28;20187;-87
2021/09/21 07:21:11;;;;;;;15.33;11.03;;;11.80;86.60;;;;;;5075048;28;20210;-87
2021/09/21 07:23:37;;;;;;;14.60;11.60;;;11.80;86.80;;;;;;5076322;28;20192;-87
2021/09/21 07:26:05;;;;;;;12.83;11.30;;;11.80;87.10;;;;;;5075077;28;20171;-87
2021/09/21 07:28:31;;;;;;;12.53;11.10;;;11.90;86.90;;;;;;5074904;28;20226;-87
2021/09/21 07:30:57;;;;;;;15.37;11.40;;;11.90;87.10;;;;;;5076233;28;20175;-87
2021/09/21 07:33:23;;;;;;;15.50;11.03;;;11.90;87.10;;;;;;5076122;28;20179;-87
2021/09/21 07:35:49;;;;;;;13.43;10.57;;;12.00;87.30;;;;;;5074883;28;20175;-87
2021/09/21 07:38:15;;;;;;;16.30;10.60;;;12.00;87.10;;;;;;5076014;28;20207;-87
2021/09/21 07:40:41;;;;;;;12.63;10.43;;;11.90;86.40;;;;;;5074648;28;20632;-87
2021/09/21 07:43:07;;;;;;;13.80;10.10;;;11.90;87.00;;;;;;5074700;28;20179;-87
2021/09/21 07:45:34;;;;;;;14.27;10.97;;;11.90;86.70;;;;;;5074690;28;20654;-87
2021/09/21 07:48:00;;;;;;;13.50;9.93;;;11.90;86.20;;;;;;5074558;28;20191;-87
2021/09/21 07:50:26;;;;;;;13.63;10.17;;;11.90;86.10;;;;;;5074659;28;20186;-87
2021/09/21 07:52:56;;;;;;;18.00;10.23;;;12.00;86.00;;;;;;5075777;28;20171;-87
2021/09/21 07:55:22;;;;;;;11.93;10.00;;;11.90;86.30;;;;;;5075791;28;20631;-87
2021/09/21 07:57:48;;;;;;;14.83;10.10;;;12.00;86.10;;;;;;5074263;28;20211;-87
2021/09/21 08:00:16;;;;;;;13.63;9.57;;;12.00;85.80;;;;;;5074361;28;20226;-87
2021/09/21 08:02:43;;;;;;;15.53;9.73;;;12.00;85.80;;;;;;5074596;28;20533;-87
2021/09/21 08:05:09;;;;;;;12.77;9.70;;;12.00;85.40;;;;;;5074360;28;20265;-87
2021/09/21 08:07:34;;;;;;;11.93;8.90;;;12.00;85.10;;;;;;5074162;28;20191;-87
2021/09/21 08:10:01;;;;;;;10.90;8.50;;;12.00;84.50;;;;;;5074408;28;20179;-87
2021/09/21 08:12:28;;;;;;;10.47;8.60;;;12.00;84.70;;;;;;5074170;28;20179;-87
2021/09/21 08:14:54;;;;;;;11.40;9.03;;;12.00;83.90;;;;;;5074141;28;20175;-87
2021/09/21 08:17:24;;;;;;;14.17;9.57;;;12.00;83.90;;;;;;5075171;28;20232;-87
2021/09/21 08:19:51;;;;;;;11.23;8.87;;;12.00;84.20;;;;;;5074063;28;20612;-87
2021/09/21 08:22:18;;;;;;;9.40;8.40;;;12.00;84.60;;;;;;5073170;28;20172;-87
2021/09/21 08:24:45;;;;;;;12.67;10.07;;;12.00;84.60;;;;;;5073912;28;20175;-87
2021/09/21 08:27:10;;;;;;;11.23;7.93;;;12.00;84.60;;;;;;5073980;28;20222;-87
2021/09/21 08:29:36;;;;;;;13.70;8.47;;;12.20;83.40;;;;;;5075402;28;20576;-87
2021/09/21 08:32:02;;;;;;;11.00;7.80;;;12.30;83.10;;;;;;5073846;28;20175;-87
2021/09/21 08:34:28;;;;;;;10.30;7.87;;;12.30;82.60;;;;;;5073778;28;20236;-87
2021/09/21 08:36:54;;;;;;;16.03;8.17;;;12.30;82.70;;;;;;5073817;28;20662;-87
2021/09/21 08:39:20;;;;;;;9.60;7.67;;;12.40;82.10;;;;;;5074710;28;20222;-87
2021/09/21 08:41:49;;;;;;;9.03;8.13;;;12.40;81.70;;;;;;5074980;28;20631;-87
2021/09/21 08:44:16;;;;;;;13.63;8.00;;;12.50;82.20;;;;;;5074881;28;20171;-87
2021/09/21 08:46:43;;;;;;;10.70;7.40;;;12.60;81.50;;;;;;5074728;28;20650;-87
2021/09/21 08:49:09;;;;;;;8.17;7.23;;;12.70;81.30;;;;;;5073380;28;20272;-87
2021/09/21 08:51:35;;;;;;;8.07;6.67;;;12.80;80.90;;;;;;5073422;28;20279;-87
2021/09/21 08:54:01;;;;;;;10.93;7.83;;;12.90;80.50;;;;;;5074881;28;20195;-87
2021/09/21 08:56:27;;;;;;;10.10;7.70;;;13.00;80.30;;;;;;5074613;28;20163;-88
2021/09/21 08:59:12;;;;;;;7.93;7.13;;;13.10;80.00;;;;;;5073022;28;20211;-88
2021/09/21 09:01:42;;;;;;;12.80;7.37;;;13.10;80.10;;;;;;5073236;28;20179;-87
2021/09/21 09:04:09;;;;;;;10.07;7.53;;;13.20;80.30;;;;;;5074405;28;20565;-87
2021/09/21 09:07:01;;;;;;;9.13;6.97;;;13.30;79.80;;;;;;5073025;28;20172;-87
2021/09/21 09:09:34;;;;;;;13.17;8.27;;;13.40;80.20;;;;;;5072112;28;20179;-88
2021/09/21 09:12:03;;;;;;;10.47;7.63;;;13.50;79.80;;;;;;5073042;28;20658;-87
2021/09/21 09:14:35;;;;;;;10.77;7.90;;;13.60;79.60;;;;;;5073052;28;20186;-87
2021/09/21 09:17:03;;;;;;;13.63;8.43;;;13.70;79.70;;;;;;5072997;28;20643;-87
2021/09/21 09:19:35;;;;;;;9.17;6.03;;;13.80;78.70;;;;;;5072849;28;20199;-88
2021/09/21 09:22:05;;;;;;;11.47;7.30;;;13.80;76.80;;;;;;5072826;28;20669;-87
2021/09/21 09:24:31;;;;;;;13.60;7.43;;;13.90;78.00;;;;;;5074010;28;20175;-87
2021/09/21 09:26:57;;;;;;;10.03;6.97;;;13.90;77.30;;;;;;5072804;28;20586;-87
2021/09/21 09:29:22;;;;;;;8.57;5.67;;;14.00;77.40;;;;;;5072563;28;20199;-87
2021/09/21 09:31:48;;;;;;;10.00;7.37;;;14.10;76.80;;;;;;5072649;28;20631;-87
2021/09/21 09:34:22;;;;;;;9.93;7.07;;;14.20;77.50;;;;;;5072408;28;20175;-87
2021/09/21 09:36:49;;;;;;;11.10;7.73;;;14.30;77.10;;;;;;5073778;28;20506;-87
2021/09/21 09:39:17;;;;;;;10.47;7.03;;;14.40;77.00;;;;;;5072363;28;20198;-87
2021/09/21 09:41:44;;;;;;;8.50;6.40;;;14.40;76.40;;;;;;5072511;28;20183;-87
2021/09/21 09:44:13;;;;;;;8.87;7.13;;;14.60;76.10;;;;;;5072580;28;20199;-88
2021/09/21 09:47:11;;;;;;;7.50;6.70;;;14.60;76.40;;;;;;5072413;28;20179;-88
2021/09/21 09:49:41;;;;;;;12.30;7.40;;;14.60;76.00;;;;;;5072497;28;20750;-87
2021/09/21 09:52:13;;;;;;;8.03;6.87;;;14.70;76.60;;;;;;5072366;28;20186;-87
2021/09/21 09:54:40;;;;;;;10.67;6.63;;;14.80;76.80;;;;;;5073611;28;20187;-88
2021/09/21 09:57:07;;;;;;;9.50;6.67;;;14.80;76.10;;;;;;5073414;28;20182;-88
2021/09/21 09:59:33;;;;;;;12.13;6.97;;;14.90;75.70;;;;;;5072056;28;20272;-87
2021/09/21 10:01:59;;;;;;;10.57;7.50;;;14.90;76.10;;;;;;5072509;28;20433;-88
2021/09/21 10:04:25;;;;;;;7.65;6.57;;;14.90;75.50;;;;;;5073428;28;20194;-88
2021/09/21 10:06:51;;;;;;;9.50;6.72;;;14.90;75.50;;;;;;5072380;28;20201;-88
2021/09/21 10:09:18;;;;;;;8.52;6.90;;;14.90;75.50;;;;;;5071908;28;20195;-88
2021/09/21 10:11:45;;;;;;;14.65;7.55;;;14.80;75.50;;;;;;5071982;28;20175;-88
2021/09/21 10:14:12;;;;;;;10.23;6.97;;;14.90;76.40;;;;;;5072062;28;20194;-88
2021/09/21 10:16:51;;;;;;;9.02;6.18;;;15.00;77.20;;;;;;5073216;28;20168;-88
2021/09/21 10:19:19;;;;;;;8.30;6.32;;;15.00;75.80;;;;;;5071890;28;20198;-88
2021/09/21 10:21:47;;;;;;;10.95;6.90;;;14.90;75.40;;;;;;5071957;28;20171;-88
2021/09/21 10:24:13;;;;;;;8.50;6.18;;;14.90;76.60;;;;;;5072047;28;20235;-88
2021/09/21 10:26:43;;;;;;;12.07;6.38;;;14.90;76.20;;;;;;5073161;28;20242;-88
2021/09/21 10:29:09;;;;;;;10.15;6.43;;;15.00;76.80;;;;;;5073103;28;20190;-89
2021/09/21 10:31:38;;;;;;;8.47;5.93;;;15.00;76.80;;;;;;5071992;28;20175;-88
2021/09/21 10:34:15;;;;;;;9.80;6.68;;;14.90;75.50;;;;;;5073118;28;20170;-88
2021/09/21 10:36:50;;;;;;;7.65;6.20;;;15.00;76.80;;;;;;5073209;28;20151;-88
2021/09/21 10:39:17;;;;;;;7.32;5.70;;;15.00;77.30;;;;;;5071769;28;20691;-88
2021/09/21 10:42:00;;;;;;;7.05;6.20;;;15.00;76.40;;;;;;5072982;28;20262;-89
2021/09/21 10:44:27;;;;;;;9.27;6.70;;;15.10;76.60;;;;;;5072983;28;20182;-88
2021/09/21 10:47:03;;;;;;;9.73;5.78;;;14.90;76.10;;;;;;5074309;28;20175;-88
2021/09/21 10:49:35;;;;;;;10.00;6.30;;;15.00;76.50;;;;;;5077400;28;20160;-88
2021/09/21 10:52:04;;;;;;;6.80;5.63;;;15.00;76.00;;;;;;5077103;28;20179;-88
2021/09/21 10:54:35;;;;;;;7.20;5.93;;;15.00;76.00;;;;;;5075811;28;20175;-88
2021/09/21 10:57:16;;;;;;;7.25;6.35;;;15.10;76.00;;;;;;5075788;28;20183;-88
2021/09/21 10:59:57;;;;;;;11.63;7.07;;;15.10;77.10;;;;;;5075647;28;20203;-89
2021/09/21 11:02:28;;;;;;;9.60;7.05;;;15.10;77.00;;;;;;5076840;28;20665;-88
2021/09/21 11:04:54;;;;;;;8.43;6.60;;;15.00;77.30;;;;;;5076930;28;20152;-88
2021/09/21 11:07:20;;;;;;;9.23;6.45;;;15.10;77.00;;;;;;5076818;28;20175;-89
2021/09/21 11:09:51;;;;;;;9.60;6.75;;;15.10;77.20;;;;;;5075551;28;20182;-88
2021/09/21 11:12:19;;;;;;;10.68;6.75;;;15.00;77.10;;;;;;5075371;28;20179;-89
2021/09/21 11:14:46;;;;;;;12.75;6.90;;;15.10;77.60;;;;;;5075418;28;20175;-89
2021/09/21 11:17:13;;;;;;;9.57;6.65;;;15.10;77.60;;;;;;5076742;28;20167;-89
2021/09/21 11:19:39;;;;;;;8.25;5.88;;;15.10;77.30;;;;;;5075211;28;20195;-89
2021/09/21 11:22:12;;;;;;;8.95;6.75;;;15.10;76.70;;;;;;5075644;28;20659;-89
2021/09/21 11:24:39;;;;;;;7.78;6.43;;;15.10;78.10;;;;;;5076503;28;20222;-89
2021/09/21 11:27:09;;;;;;;8.57;7.18;;;15.10;77.60;;;;;;5075042;28;20547;-87
2021/09/21 11:29:39;;;;;;;9.13;6.45;;;15.10;77.40;;;;;;5076308;28;20174;-87
2021/09/21 11:32:19;;;;;;;9.38;6.82;;;15.10;78.30;;;;;;5076245;28;20240;-87
2021/09/21 11:34:46;;;;;;;9.65;6.93;;;15.20;77.80;;;;;;5076471;28;20155;-87
2021/09/21 11:37:13;;;;;;;9.40;6.03;;;15.20;78.30;;;;;;5074794;28;20183;-87
2021/09/21 11:39:39;;;;;;;10.03;7.17;;;15.30;77.60;;;;;;5076036;28;20198;-87
2021/09/21 11:42:05;;;;;;;11.10;7.35;;;15.30;77.50;;;;;;5076013;28;20167;-87
2021/09/21 11:44:38;;;;;;;14.20;6.82;;;15.50;78.00;;;;;;5074825;28;20599;-86
2021/09/21 11:47:04;;;;;;;8.00;6.53;;;15.50;77.90;;;;;;5074586;28;20175;-87
2021/09/21 11:49:30;;;;;;;9.23;6.30;;;15.60;77.50;;;;;;5076264;28;20194;-87
2021/09/21 11:51:56;;;;;;;10.48;6.95;;;15.60;77.10;;;;;;5074600;28;20175;-86
2021/09/21 11:54:21;;;;;;;9.55;6.07;;;15.60;78.00;;;;;;5074660;28;20183;-86
2021/09/21 11:56:47;;;;;;;8.85;6.32;;;15.60;77.90;;;;;;5074463;28;20224;-86
2021/09/21 11:59:19;;;;;;;11.18;6.95;;;15.70;77.60;;;;;;5075533;28;20209;-86
2021/09/21 12:01:54;;;;;;;12.38;6.60;;;15.70;77.90;;;;;;5074404;28;20175;-86
2021/09/21 12:04:19;;;;;;;8.38;6.45;;;15.70;76.80;;;;;;5075651;28;20608;-87
2021/09/21 12:06:46;;;;;;;8.00;6.22;;;15.70;77.70;;;;;;5075671;28;20198;-86
2021/09/21 12:09:13;;;;;;;10.82;6.82;;;15.90;77.80;;;;;;5075466;28;20202;-86
2021/09/21 12:11:45;;;;;;;10.73;7.28;;;15.80;77.60;;;;;;5074233;28;20175;-86
2021/09/21 12:14:11;;;;;;;9.98;6.28;;;15.90;77.20;;;;;;5075145;28;20576;-86
2021/09/21 12:16:37;;;;;;;14.85;7.47;;;15.90;77.60;;;;;;5075502;28;20156;-86
2021/09/21 12:19:16;;;;;;;13.95;7.72;;;15.80;78.10;;;;;;5075421;28;20230;-87
2021/09/21 12:21:43;;;;;;;7.93;6.72;;;15.90;77.60;;;;;;5074144;28;20171;-87
2021/09/21 12:24:09;;;;;;;13.82;7.50;;;16.00;77.60;;;;;;5075318;28;20179;-86
2021/09/21 12:26:34;;;;;;;9.50;6.30;;;16.10;78.60;;;;;;5075296;28;20176;-86
2021/09/21 12:29:00;;;;;;;12.93;7.13;;;16.00;76.90;;;;;;5073881;28;20199;-86
2021/09/21 12:31:29;;;;;;;8.77;6.63;;;16.20;77.20;;;;;;5075559;28;20168;-86
2021/09/21 12:33:57;;;;;;;9.07;7.25;;;16.30;77.30;;;;;;5073875;28;20266;-86
2021/09/21 12:36:25;;;;;;;14.60;7.45;;;16.50;76.80;;;;;;5073765;28;20207;-86
2021/09/21 12:38:58;;;;;;;8.57;7.45;;;16.40;76.70;;;;;;5075217;28;20730;-86
2021/09/21 12:41:24;;;;;;;11.02;6.97;;;16.50;77.40;;;;;;5074871;28;20284;-87
2021/09/21 12:43:53;;;;;;;9.85;6.85;;;16.60;76.80;;;;;;5074877;28;20172;-86
2021/09/21 12:46:19;;;;;;;10.15;6.93;;;16.60;76.70;;;;;;5074819;28;20186;-86